createdAt,value
2018-12-09T00:01:20.207Z,1.63
2018-12-09T00:03:49.375Z,4.83
2018-12-09T00:06:18.522Z,1.10
2018-12-09T00:08:47.714Z,2.00
2018-12-09T00:11:16.894Z,2.07
2018-12-09T00:13:46.128Z,3.07
2018-12-09T00:16:15.947Z,3.93
2018-12-09T00:18:45.123Z,1.77
2018-12-09T00:21:14.302Z,0.60
2018-12-09T00:23:43.473Z,0.87
2018-12-09T00:26:12.619Z,2.13
2018-12-09T00:28:41.791Z,1.33
2018-12-09T00:31:10.972Z,0.70
2018-12-09T00:33:40.179Z,2.13
2018-12-09T00:36:09.376Z,2.20
2018-12-09T00:38:38.534Z,2.73
2018-12-09T00:41:07.663Z,1.37
2018-12-09T00:43:36.823Z,1.53
2018-12-09T00:46:05.995Z,1.73
2018-12-09T00:48:35.148Z,0.63
2018-12-09T00:51:04.311Z,3.13
2018-12-09T00:53:33.504Z,4.07
2018-12-09T00:56:02.616Z,3.40
2018-12-09T00:58:31.795Z,1.50
2018-12-09T01:01:00.931Z,3.33
2018-12-09T01:03:30.095Z,2.83
2018-12-09T01:05:59.338Z,1.07
2018-12-09T01:08:28.425Z,3.37
2018-12-09T01:10:57.724Z,2.53
2018-12-09T01:13:27.602Z,4.00
2018-12-09T01:15:56.912Z,2.53
2018-12-09T01:18:26.044Z,3.37
2018-12-09T01:20:55.241Z,1.83
2018-12-09T01:23:24.396Z,2.60
2018-12-09T01:25:53.563Z,1.60
2018-12-09T01:28:22.702Z,3.10
2018-12-09T01:30:53.149Z,4.33
2018-12-09T01:33:22.253Z,6.77
2018-12-09T01:35:51.406Z,3.50
2018-12-09T01:38:20.652Z,1.53
2018-12-09T01:40:54.705Z,6.37
2018-12-09T01:43:23.987Z,2.17
2018-12-09T01:45:53.180Z,3.20
2018-12-09T01:48:22.477Z,5.47
2018-12-09T01:50:51.651Z,4.90
2018-12-09T01:54:29.207Z,4.10
2018-12-09T01:56:58.367Z,2.83
2018-12-09T01:59:27.535Z,5.33
2018-12-09T02:01:56.742Z,3.17
2018-12-09T02:04:25.992Z,4.63
2018-12-09T02:06:55.224Z,5.87
2018-12-09T02:09:24.655Z,7.50
2018-12-09T02:11:53.896Z,5.13
2018-12-09T02:14:23.284Z,6.13
2018-12-09T02:16:52.560Z,4.33
2018-12-09T02:19:24.115Z,6.03
2018-12-09T02:21:53.340Z,5.20
2018-12-09T02:24:23.123Z,6.37
2018-12-09T02:26:52.267Z,6.13
2018-12-09T02:29:21.404Z,4.80
2018-12-09T02:31:50.553Z,3.83
2018-12-09T02:34:19.983Z,6.40
2018-12-09T02:36:49.270Z,3.70
2018-12-09T02:39:18.393Z,8.27
2018-12-09T02:41:47.836Z,9.50
2018-12-09T02:44:17.171Z,5.00
2018-12-09T02:46:46.295Z,8.20
2018-12-09T02:49:15.479Z,10.00
2018-12-09T02:51:44.779Z,6.77
2018-12-09T02:54:13.949Z,8.07
2018-12-09T02:56:43.159Z,7.30
2018-12-09T02:59:12.329Z,6.97
2018-12-09T03:01:41.577Z,6.93
2018-12-09T03:04:11.295Z,7.47
2018-12-09T03:06:40.776Z,9.43
2018-12-09T03:09:10.961Z,9.53
2018-12-09T03:11:40.200Z,6.03
2018-12-09T03:14:09.401Z,4.97
2018-12-09T03:16:38.625Z,4.53
2018-12-09T03:19:07.787Z,5.50
2018-12-09T03:21:37.075Z,11.47
2018-12-09T03:24:06.280Z,7.13
2018-12-09T03:26:35.504Z,9.20
2018-12-09T03:29:04.786Z,5.47
2018-12-09T03:31:33.939Z,2.47
2018-12-09T03:34:03.171Z,3.80
2018-12-09T03:36:32.359Z,4.27
2018-12-09T03:39:03.408Z,4.50
2018-12-09T03:41:32.740Z,4.80
2018-12-09T03:44:03.042Z,6.47
2018-12-09T03:46:32.279Z,10.60
2018-12-09T03:49:01.432Z,6.67
2018-12-09T03:51:30.657Z,5.90
2018-12-09T03:53:59.782Z,6.03
2018-12-09T03:56:28.896Z,16.40
2018-12-09T03:58:58.489Z,7.13
2018-12-09T04:01:27.623Z,6.93
2018-12-09T04:03:56.898Z,13.77
2018-12-09T04:06:26.081Z,11.20
2018-12-09T04:08:55.372Z,9.83
2018-12-09T04:11:24.563Z,12.90
2018-12-09T04:13:53.700Z,12.73
2018-12-09T04:16:23.126Z,13.10
2018-12-09T04:18:52.283Z,16.80
2018-12-09T04:21:21.475Z,8.97
2018-12-09T04:23:50.692Z,14.83
2018-12-09T04:26:19.873Z,14.47
2018-12-09T04:28:49.003Z,14.57
2018-12-09T04:31:18.147Z,11.90
2018-12-09T04:33:47.676Z,8.23
2018-12-09T04:36:17.570Z,12.37
2018-12-09T04:38:46.781Z,9.70
2018-12-09T04:41:15.912Z,11.37
2018-12-09T04:43:45.043Z,11.47
2018-12-09T04:46:14.184Z,7.43
2018-12-09T04:48:43.299Z,8.83
2018-12-09T04:51:13.060Z,10.33
2018-12-09T04:53:42.262Z,8.47
2018-12-09T04:56:11.668Z,9.17
2018-12-09T04:58:50.820Z,8.30
2018-12-09T05:01:19.961Z,12.27
2018-12-09T05:03:54.557Z,7.83
2018-12-09T05:06:29.037Z,7.60
2018-12-09T05:09:04.750Z,10.53
2018-12-09T05:11:39.283Z,6.50
2018-12-09T05:14:14.635Z,9.53
2018-12-09T05:16:49.287Z,12.63
2018-12-09T05:19:23.790Z,6.07
2018-12-09T05:21:58.614Z,10.43
2018-12-09T05:24:33.275Z,7.33
2018-12-09T05:27:07.947Z,8.57
2018-12-09T05:29:42.567Z,6.67
2018-12-09T05:32:17.319Z,6.37
2018-12-09T05:34:52.116Z,9.20
2018-12-09T05:37:26.672Z,3.10
2018-12-09T05:40:01.155Z,15.57
2018-12-09T05:42:35.585Z,6.70
2018-12-09T05:45:11.281Z,7.70
